Time;durP1;ratioP1;P1;durP2;ratioP2;P2;SDS_P1;SDS_P2;PMS_P1;PMS_P2;Temp;Humidity;BMP_temperature;BMP_pressure;BME280_temperature;BME280_humidity;BME280_pressure;Samples;Min_cycle;Max_cycle;Signal;HPM_P1;HPM_P2
2022/09/04 00:02:24;;;;;;;22.33;15.73;;;17.40;99.90;;;;;;4935132;29;20075;-71
2022/09/04 00:05:00;;;;;;;20.48;15.70;;;17.30;99.90;;;;;;4933984;29;20028;-75
2022/09/04 00:07:33;;;;;;;24.65;17.48;;;17.30;99.90;;;;;;4934677;28;20039;-69
2022/09/04 00:10:10;;;;;;;25.42;17.45;;;17.30;99.90;;;;;;4934423;29;20046;-75
2022/09/04 00:12:48;;;;;;;22.33;17.85;;;17.30;99.90;;;;;;4934507;29;20117;-66
2022/09/04 00:15:19;;;;;;;21.85;17.77;;;17.40;99.90;;;;;;4934692;29;20059;-74
2022/09/04 00:17:59;;;;;;;21.75;15.32;;;17.40;99.90;;;;;;4934328;29;20163;-68
2022/09/04 00:20:50;;;;;;;24.50;17.13;;;17.50;99.90;;;;;;4927946;29;20043;-75
2022/09/04 00:23:26;;;;;;;25.85;17.10;;;17.60;99.90;;;;;;4941327;29;20032;-67
2022/09/04 00:26:26;;;;;;;24.02;18.20;;;17.50;99.90;;;;;;4935952;29;20398;-73
2022/09/04 00:29:02;;;;;;;22.30;17.25;;;17.40;99.90;;;;;;5006014;28;20103;-75
2022/09/04 00:31:58;;;;;;;22.92;17.85;;;17.40;99.90;;;;;;5015513;28;20022;-76
2022/09/04 00:34:46;;;;;;;23.15;17.20;;;17.30;99.90;;;;;;4974262;28;20075;-64
2022/09/04 00:37:17;;;;;;;24.27;18.20;;;17.30;99.90;;;;;;4954843;29;20071;-75
2022/09/04 00:39:49;;;;;;;24.35;19.27;;;17.40;99.90;;;;;;4954518;29;20142;-75
2022/09/04 00:42:55;;;;;;;26.30;20.67;;;17.50;99.90;;;;;;4954727;29;20039;-74
2022/09/04 00:45:51;;;;;;;28.98;18.92;;;17.50;99.90;;;;;;4860578;29;20048;-73
2022/09/04 00:48:29;;;;;;;25.75;18.80;;;17.40;99.90;;;;;;4805015;29;20486;-74
2022/09/04 00:51:36;;;;;;;24.92;18.52;;;17.50;99.90;;;;;;4805702;29;20059;-75
2022/09/04 00:54:20;;;;;;;29.13;19.25;;;17.50;99.90;;;;;;4805614;29;20065;-72
2022/09/04 00:57:22;;;;;;;32.60;20.70;;;17.60;99.90;;;;;;4806260;29;20122;-76
2022/09/04 01:00:07;;;;;;;24.63;21.13;;;17.60;99.90;;;;;;4800999;29;20094;-76
2022/09/04 01:02:36;;;;;;;34.00;22.60;;;17.70;99.90;;;;;;4805387;29;20754;-73
2022/09/04 01:05:25;;;;;;;32.58;24.25;;;17.70;99.90;;;;;;4805506;29;20564;-76
2022/09/04 01:08:04;;;;;;;30.40;25.27;;;17.70;99.90;;;;;;4805239;29;20170;-76
2022/09/04 01:10:38;;;;;;;36.80;28.58;;;17.70;99.90;;;;;;4804443;29;20287;-64
2022/09/04 01:13:23;;;;;;;40.40;29.17;;;17.70;99.90;;;;;;4804855;29;20209;-75
2022/09/04 01:16:24;;;;;;;36.10;30.02;;;17.70;99.90;;;;;;4859961;29;20081;-76
2022/09/04 01:19:21;;;;;;;36.70;29.60;;;17.70;99.90;;;;;;4810713;29;20079;-67
2022/09/04 01:22:26;;;;;;;37.15;29.40;;;17.70;99.90;;;;;;4832328;29;20105;-75
2022/09/04 01:25:09;;;;;;;35.50;29.77;;;17.80;99.90;;;;;;4865455;29;20083;-75
2022/09/04 01:27:56;;;;;;;43.30;33.95;;;17.80;99.90;;;;;;4915952;29;20043;-68
2022/09/04 01:30:22;;;;;;;49.08;36.22;;;17.80;99.90;;;;;;4914877;29;20052;-73
2022/09/04 01:32:56;;;;;;;52.55;38.22;;;17.70;99.90;;;;;;4915609;29;20064;-75
2022/09/04 01:35:47;;;;;;;42.72;31.13;;;17.60;99.90;;;;;;4906179;29;20048;-75
2022/09/04 01:38:34;;;;;;;39.13;31.50;;;17.70;99.90;;;;;;4913110;29;20139;-75
2022/09/04 01:41:34;;;;;;;34.50;29.52;;;17.70;99.90;;;;;;4915677;29;20032;-74
2022/09/04 01:44:01;;;;;;;32.50;27.27;;;17.50;99.90;;;;;;4874661;29;20473;-74
2022/09/04 01:46:53;;;;;;;31.88;25.08;;;17.60;99.90;;;;;;4878078;29;20033;-76
2022/09/04 01:49:37;;;;;;;31.50;24.95;;;17.60;99.90;;;;;;4877946;29;20158;-76
2022/09/04 01:52:35;;;;;;;34.13;24.42;;;17.70;99.90;;;;;;4877374;29;20034;-67
2022/09/04 01:55:36;;;;;;;27.75;22.75;;;17.60;99.90;;;;;;4888512;29;20430;-74
2022/09/04 01:58:26;;;;;;;28.30;23.02;;;17.60;99.90;;;;;;4914915;29;20513;-67
2022/09/04 02:01:20;;;;;;;28.42;23.85;;;17.70;99.90;;;;;;4908315;29;20509;-75
2022/09/04 02:04:06;;;;;;;26.42;22.73;;;17.70;99.90;;;;;;4926131;29;20031;-75
2022/09/04 02:06:49;;;;;;;31.30;23.02;;;17.80;99.90;;;;;;4915577;29;20050;-73
2022/09/04 02:09:26;;;;;;;32.20;23.45;;;17.70;99.90;;;;;;4915144;29;20498;-75
2022/09/04 02:12:23;;;;;;;29.38;22.98;;;17.70;99.90;;;;;;4914687;29;20040;-71
2022/09/04 02:15:20;;;;;;;30.02;23.85;;;17.70;99.90;;;;;;4909448;29;20031;-75
2022/09/04 02:18:12;;;;;;;32.20;23.45;;;17.60;99.90;;;;;;4898929;29;20428;-75
2022/09/04 02:20:45;;;;;;;30.50;23.95;;;17.60;99.90;;;;;;4972258;28;20038;-75
2022/09/04 02:23:10;;;;;;;30.80;23.42;;;17.60;99.90;;;;;;5013104;28;20053;-76
2022/09/04 02:26:06;;;;;;;29.48;23.90;;;17.60;99.90;;;;;;5013000;28;20131;-72
2022/09/04 02:28:50;;;;;;;25.45;21.95;;;17.50;99.90;;;;;;5004069;28;20061;-75
2022/09/04 02:31:39;;;;;;;33.97;24.45;;;17.50;99.90;;;;;;5013394;28;20029;-75
2022/09/04 02:34:18;;;;;;;29.08;23.13;;;17.40;99.90;;;;;;5012370;28;20089;-69
2022/09/04 02:37:04;;;;;;;29.90;23.13;;;17.20;99.90;;;;;;5015690;28;20018;-76
2022/09/04 02:39:40;;;;;;;30.52;23.17;;;17.10;99.90;;;;;;5013023;28;20112;-76
2022/09/04 02:42:13;;;;;;;26.92;22.55;;;17.10;99.90;;;;;;5012781;28;20385;-75
2022/09/04 02:45:07;;;;;;;28.00;22.75;;;17.10;99.90;;;;;;5013097;28;20025;-75
2022/09/04 02:47:50;;;;;;;28.30;21.77;;;17.10;99.90;;;;;;5011841;28;20096;-72
2022/09/04 02:50:29;;;;;;;29.15;21.58;;;17.20;99.90;;;;;;5012894;28;20044;-74
2022/09/04 02:53:24;;;;;;;29.15;21.60;;;17.20;99.90;;;;;;5012517;28;20469;-75
2022/09/04 02:56:08;;;;;;;25.95;20.55;;;17.20;99.90;;;;;;5012626;28;20065;-75
2022/09/04 02:59:08;;;;;;;28.35;22.92;;;17.30;99.90;;;;;;5013122;28;20366;-76
2022/09/04 03:01:39;;;;;;;26.70;21.52;;;17.30;99.90;;;;;;5011194;28;20046;-75
2022/09/04 03:04:32;;;;;;;24.43;20.40;;;17.30;99.90;;;;;;5012332;28;20045;-76
2022/09/04 03:07:34;;;;;;;27.63;21.23;;;17.30;99.90;;;;;;5011777;28;20022;-77
2022/09/04 03:10:10;;;;;;;22.63;19.02;;;17.40;99.90;;;;;;5008740;28;20092;-76
2022/09/04 03:12:52;;;;;;;25.42;18.83;;;17.40;99.90;;;;;;5012410;28;20069;-75
2022/09/04 03:15:26;;;;;;;25.35;19.98;;;17.20;99.90;;;;;;5012878;28;20037;-74
2022/09/04 03:18:13;;;;;;;24.25;19.27;;;17.00;99.90;;;;;;5012154;28;20030;-76
2022/09/04 03:20:50;;;;;;;27.70;19.45;;;17.00;99.90;;;;;;5012354;28;20037;-75
2022/09/04 03:23:27;;;;;;;24.30;19.33;;;16.90;99.90;;;;;;5010321;28;20403;-75
2022/09/04 03:26:10;;;;;;;27.92;20.40;;;16.90;99.90;;;;;;5012599;28;20073;-76
2022/09/04 03:28:58;;;;;;;24.48;19.48;;;16.90;99.90;;;;;;5011190;28;20033;-75
2022/09/04 03:31:48;;;;;;;26.58;18.92;;;16.70;99.90;;;;;;5012457;28;20057;-75
2022/09/04 03:34:40;;;;;;;28.27;19.08;;;16.70;99.90;;;;;;5012224;28;20022;-76
2022/09/04 03:37:29;;;;;;;26.02;19.42;;;16.80;99.90;;;;;;5012119;28;20030;-75
2022/09/04 03:40:04;;;;;;;26.88;19.20;;;16.80;99.90;;;;;;5012492;28;20038;-76
2022/09/04 03:43:17;;;;;;;25.95;19.25;;;16.60;99.90;;;;;;5011785;28;20088;-75
2022/09/04 03:46:20;;;;;;;22.85;17.35;;;16.60;99.90;;;;;;4971271;28;20546;-76
2022/09/04 03:49:04;;;;;;;23.75;17.75;;;16.50;99.90;;;;;;4966109;28;20066;-76
2022/09/04 03:51:30;;;;;;;20.58;15.85;;;16.50;99.90;;;;;;4971169;28;20139;-76
2022/09/04 03:54:14;;;;;;;26.58;16.67;;;16.50;99.90;;;;;;4969393;28;20393;-76
2022/09/04 03:56:53;;;;;;;21.77;14.85;;;16.50;99.90;;;;;;4969540;28;20043;-75
2022/09/04 03:59:19;;;;;;;19.17;15.27;;;16.40;99.90;;;;;;4966997;28;20043;-72
2022/09/04 04:02:11;;;;;;;24.02;15.32;;;16.40;99.90;;;;;;4970360;28;20019;-73
2022/09/04 04:05:04;;;;;;;22.70;15.48;;;16.50;99.90;;;;;;4970116;28;20038;-76
2022/09/04 04:07:53;;;;;;;23.73;16.23;;;16.30;99.90;;;;;;4970342;28;20026;-76
2022/09/04 04:10:24;;;;;;;26.48;18.23;;;16.30;99.90;;;;;;4970998;28;20490;-75
2022/09/04 04:13:01;;;;;;;26.05;19.23;;;16.20;99.90;;;;;;4965427;28;20030;-74
2022/09/04 04:15:52;;;;;;;22.92;16.95;;;16.10;99.90;;;;;;4964475;28;20043;-76
2022/09/04 04:18:20;;;;;;;26.27;18.55;;;16.20;99.90;;;;;;4970472;28;20090;-75
2022/09/04 04:21:11;;;;;;;24.25;18.42;;;16.20;99.90;;;;;;4966590;28;20471;-75
2022/09/04 04:23:55;;;;;;;24.58;19.13;;;16.30;99.90;;;;;;5007039;28;20026;-75
2022/09/04 04:26:48;;;;;;;24.52;19.00;;;16.30;99.90;;;;;;5011452;28;20050;-65
2022/09/04 04:29:42;;;;;;;25.48;18.95;;;16.30;99.90;;;;;;5009880;28;20041;-76
2022/09/04 04:32:16;;;;;;;26.08;19.05;;;16.30;99.90;;;;;;5011816;28;20069;-69
2022/09/04 04:35:12;;;;;;;28.50;19.40;;;16.20;99.90;;;;;;5007877;28;20029;-75
2022/09/04 04:38:03;;;;;;;26.98;19.15;;;16.20;99.90;;;;;;5012438;28;20018;-76
2022/09/04 04:40:58;;;;;;;25.30;19.75;;;16.20;99.90;;;;;;5014713;28;20034;-76
2022/09/04 04:43:48;;;;;;;28.13;20.38;;;16.20;99.90;;;;;;5014675;28;20054;-76
2022/09/04 04:46:41;;;;;;;26.67;19.40;;;16.20;99.90;;;;;;5014625;28;20369;-75
2022/09/04 04:49:32;;;;;;;27.70;19.80;;;16.30;99.90;;;;;;5014833;28;20068;-75
2022/09/04 04:52:17;;;;;;;28.63;22.08;;;16.40;99.90;;;;;;5006718;28;20104;-76
2022/09/04 04:55:09;;;;;;;30.30;22.85;;;16.40;99.90;;;;;;5012320;28;20087;-75
2022/09/04 04:58:05;;;;;;;30.73;22.58;;;16.20;99.90;;;;;;5014575;28;20030;-75
2022/09/04 05:00:49;;;;;;;27.98;21.92;;;16.10;99.90;;;;;;5003188;28;20033;-76
2022/09/04 05:03:24;;;;;;;30.15;25.13;;;16.20;99.90;;;;;;5013943;28;20584;-75
2022/09/04 05:05:54;;;;;;;30.70;23.52;;;16.30;99.90;;;;;;5014742;28;20038;-76
2022/09/04 05:08:43;;;;;;;35.55;24.90;;;16.40;99.90;;;;;;5014275;28;20438;-75
2022/09/04 05:11:39;;;;;;;31.90;23.30;;;16.40;99.90;;;;;;5014409;28;20026;-76
2022/09/04 05:14:32;;;;;;;30.45;22.73;;;16.50;99.90;;;;;;5014365;28;20076;-75
2022/09/04 05:17:34;;;;;;;29.60;23.05;;;16.50;99.90;;;;;;5010708;28;20026;-75
2022/09/04 05:20:27;;;;;;;28.25;22.20;;;16.40;99.90;;;;;;5010242;28;20032;-76
2022/09/04 05:23:34;;;;;;;31.80;24.38;;;16.60;99.90;;;;;;5012994;28;20045;-75
2022/09/04 05:26:10;;;;;;;32.55;24.02;;;16.60;99.90;;;;;;5011201;28;20040;-73
2022/09/04 05:29:14;;;;;;;30.58;23.50;;;16.60;99.90;;;;;;5013400;28;20030;-69
2022/09/04 05:31:43;;;;;;;31.38;23.73;;;16.80;99.90;;;;;;5015589;28;20110;-65
2022/09/04 05:34:29;;;;;;;32.58;22.60;;;16.90;99.90;;;;;;5012477;28;20026;-74
2022/09/04 05:37:40;;;;;;;30.30;23.65;;;17.20;99.90;;;;;;5012789;28;20538;-71
2022/09/04 05:40:25;;;;;;;32.38;22.38;;;17.30;99.90;;;;;;5002295;28;20042;-75
2022/09/04 05:42:54;;;;;;;32.35;24.05;;;17.50;99.90;;;;;;5011664;28;20041;-74
2022/09/04 05:46:37;;;;;;;29.20;22.30;;;17.50;99.90;;;;;;5011604;28;20010;-73
2022/09/04 05:49:30;;;;;;;27.40;21.92;;;17.70;99.90;;;;;;4857577;29;20065;-72
2022/09/04 05:52:17;;;;;;;28.55;21.98;;;17.90;99.90;;;;;;4858173;29;20033;-76
2022/09/04 05:55:00;;;;;;;31.90;23.45;;;18.20;99.90;;;;;;4858986;29;20072;-77
2022/09/04 05:57:45;;;;;;;33.13;21.73;;;18.40;99.90;;;;;;4858600;29;20158;-77
2022/09/04 06:00:18;;;;;;;28.25;21.33;;;18.50;99.90;;;;;;4858925;29;20042;-78
2022/09/04 06:03:05;;;;;;;26.58;20.85;;;18.60;99.90;;;;;;4858447;29;20038;-78
2022/09/04 06:05:57;;;;;;;26.13;20.23;;;18.80;99.90;;;;;;4858915;29;20041;-77
2022/09/04 06:08:47;;;;;;;25.33;19.80;;;18.70;99.90;;;;;;4858748;29;20142;-76
2022/09/04 06:11:33;;;;;;;26.50;20.88;;;18.60;99.90;;;;;;4858536;29;20060;-77
2022/09/04 06:13:59;;;;;;;30.08;18.98;;;18.60;99.90;;;;;;4858598;29;20150;-76
2022/09/04 06:16:39;;;;;;;26.55;19.27;;;18.60;99.90;;;;;;4858876;29;20053;-73
2022/09/04 06:19:10;;;;;;;28.08;21.40;;;18.60;99.90;;;;;;4891782;28;20069;-77
2022/09/04 06:21:48;;;;;;;30.90;23.50;;;18.60;99.90;;;;;;5013527;28;20049;-75
2022/09/04 06:24:37;;;;;;;27.83;20.92;;;18.70;99.90;;;;;;5013083;28;20116;-76
2022/09/04 06:27:53;;;;;;;27.45;20.73;;;18.80;99.90;;;;;;5008347;28;20040;-74
2022/09/04 06:30:19;;;;;;;29.30;21.52;;;18.90;99.90;;;;;;4965632;28;20053;-74
2022/09/04 06:32:47;;;;;;;26.85;21.85;;;18.80;99.90;;;;;;4971835;28;20031;-74
2022/09/04 06:35:32;;;;;;;31.90;22.52;;;18.70;99.90;;;;;;4971836;28;20037;-72
2022/09/04 06:38:35;;;;;;;25.65;20.30;;;18.80;99.90;;;;;;4971338;28;20521;-69
2022/09/04 06:41:37;;;;;;;28.15;20.50;;;18.90;99.90;;;;;;4970723;28;20039;-74
2022/09/04 06:44:53;;;;;;;26.55;20.55;;;19.10;99.90;;;;;;4942928;28;20125;-74
2022/09/04 06:47:28;;;;;;;24.83;19.50;;;19.00;99.90;;;;;;4970657;28;20079;-74
2022/09/04 06:50:24;;;;;;;26.08;20.13;;;19.10;99.90;;;;;;4971110;28;20054;-75
2022/09/04 06:53:31;;;;;;;29.33;20.13;;;19.20;99.90;;;;;;4970601;28;20113;-77
2022/09/04 06:56:21;;;;;;;26.63;20.23;;;19.20;99.90;;;;;;4931978;29;20071;-69
2022/09/04 06:58:47;;;;;;;24.98;19.63;;;19.20;99.90;;;;;;4931541;29;20047;-75
2022/09/04 07:01:39;;;;;;;28.40;20.67;;;19.20;99.90;;;;;;4932544;29;20071;-74
2022/09/04 07:04:16;;;;;;;25.90;19.23;;;19.20;99.90;;;;;;4932314;29;20083;-73
2022/09/04 07:06:42;;;;;;;28.27;21.13;;;19.10;99.90;;;;;;4967970;28;20412;-68
2022/09/04 07:09:27;;;;;;;26.27;19.00;;;19.10;99.90;;;;;;4970074;28;20027;-74
2022/09/04 07:12:20;;;;;;;23.98;18.75;;;19.20;99.90;;;;;;4969994;28;20398;-74
2022/09/04 07:15:23;;;;;;;26.23;18.60;;;19.20;99.90;;;;;;4969327;28;20034;-72
2022/09/04 07:17:55;;;;;;;;;;;19.20;99.90;;;;;;4970286;28;20114;-75
2022/09/04 07:20:34;;;;;;;26.33;18.63;;;19.10;99.90;;;;;;4970384;28;19937;-74
2022/09/04 07:23:21;;;;;;;27.63;19.17;;;19.50;99.90;;;;;;4969674;28;20023;-77
2022/09/04 07:25:50;;;;;;;23.17;17.92;;;19.90;99.90;;;;;;4970508;28;20049;-77
2022/09/04 07:28:47;;;;;;;24.98;18.20;;;20.40;99.90;;;;;;4970542;28;20027;-76
2022/09/04 07:31:45;;;;;;;25.77;18.23;;;20.60;99.90;;;;;;4970374;28;20027;-75
2022/09/04 07:34:22;;;;;;;25.30;18.90;;;20.60;99.90;;;;;;5011216;28;20045;-77
2022/09/04 07:37:06;;;;;;;24.40;18.05;;;20.90;99.90;;;;;;5012092;28;20117;-77
2022/09/04 07:39:36;;;;;;;27.60;18.13;;;20.90;99.90;;;;;;5011993;28;20053;-76
2022/09/04 07:42:37;;;;;;;24.92;19.38;;;20.70;99.90;;;;;;5011848;28;20030;-77
2022/09/04 07:45:15;;;;;;;27.02;19.13;;;20.90;99.90;;;;;;5000866;28;20040;-77
2022/09/04 07:47:48;;;;;;;22.40;16.67;;;21.00;99.90;;;;;;5011606;28;20077;-76
2022/09/04 07:51:08;;;;;;;22.23;17.25;;;21.30;99.90;;;;;;5011374;28;20026;-77
2022/09/04 07:53:52;;;;;;;23.83;18.20;;;21.30;99.90;;;;;;4950952;29;20643;-77
2022/09/04 07:56:44;;;;;;;23.77;18.35;;;20.70;99.90;;;;;;4935074;29;20043;-77
2022/09/04 07:59:23;;;;;;;;;;;20.80;99.90;;;;;;4951370;29;20114;-76
2022/09/04 08:02:25;;;;;;;23.50;18.20;;;20.80;99.90;;;;;;4951027;29;19910;-75
2022/09/04 08:05:09;;;;;;;24.42;18.30;;;21.20;99.90;;;;;;4874426;29;20045;-77
2022/09/04 08:07:37;;;;;;;25.00;17.45;;;21.20;99.90;;;;;;4874904;29;20448;-76
2022/09/04 08:10:36;;;;;;;22.42;16.80;;;21.40;99.90;;;;;;4878518;29;20067;-77
2022/09/04 08:13:21;;;;;;;25.17;18.05;;;21.60;99.90;;;;;;4877949;29;20043;-71
2022/09/04 08:16:10;;;;;;;23.10;16.48;;;21.80;99.90;;;;;;4878933;29;20446;-76
2022/09/04 08:18:57;;;;;;;24.50;17.45;;;21.90;99.90;;;;;;4878020;29;20128;-77
2022/09/04 08:21:30;;;;;;;27.38;16.80;;;22.20;99.90;;;;;;4878331;29;20044;-77
2022/09/04 08:23:58;;;;;;;21.08;16.52;;;22.30;99.90;;;;;;4878535;29;20037;-67
2022/09/04 08:26:35;;;;;;;21.23;15.07;;;22.40;99.90;;;;;;4878476;29;20095;-77
2022/09/04 08:29:31;;;;;;;21.58;15.93;;;22.40;99.90;;;;;;4910077;29;20055;-75
2022/09/04 08:32:18;;;;;;;21.42;15.35;;;22.30;99.90;;;;;;4933237;29;20159;-76
2022/09/04 08:35:08;;;;;;;24.05;17.80;;;22.30;99.90;;;;;;4937093;29;20179;-77
2022/09/04 08:37:55;;;;;;;22.50;15.45;;;22.10;99.90;;;;;;4935155;29;20050;-76
2022/09/04 08:40:41;;;;;;;20.88;15.32;;;22.10;99.90;;;;;;4934684;29;20055;-77
2022/09/04 08:43:19;;;;;;;21.70;16.15;;;22.20;99.90;;;;;;5011164;28;20073;-77
2022/09/04 08:45:53;;;;;;;20.60;15.80;;;22.10;99.90;;;;;;5013995;28;20045;-72
2022/09/04 08:48:41;;;;;;;24.02;15.60;;;21.90;99.90;;;;;;5014344;28;20550;-77
2022/09/04 08:52:01;;;;;;;20.08;15.60;;;21.60;99.90;;;;;;5014457;28;20042;-73
2022/09/04 08:55:01;;;;;;;24.45;17.25;;;21.30;99.90;;;;;;4953684;29;20024;-77
2022/09/04 08:57:30;;;;;;;23.90;17.35;;;21.20;99.90;;;;;;4953906;29;20035;-77
2022/09/04 09:00:06;;;;;;;22.67;17.20;;;21.30;99.90;;;;;;4953742;29;20402;-74
2022/09/04 09:02:58;;;;;;;23.30;15.77;;;21.40;99.90;;;;;;4954852;28;20031;-77
2022/09/04 09:05:43;;;;;;;21.95;16.75;;;21.50;99.90;;;;;;4961977;28;20039;-78
2022/09/04 09:08:49;;;;;;;24.65;15.90;;;21.40;99.90;;;;;;4953952;28;20533;-77
2022/09/04 09:11:46;;;;;;;22.42;18.00;;;21.50;99.90;;;;;;4953729;29;20063;-76
2022/09/04 09:14:48;;;;;;;20.67;15.93;;;21.60;99.90;;;;;;4953268;28;20035;-77
2022/09/04 09:17:39;;;;;;;29.48;16.30;;;21.70;99.90;;;;;;4945030;29;20106;-76
2022/09/04 09:20:58;;;;;;;24.25;16.45;;;21.70;99.90;;;;;;4951956;28;20604;-77
2022/09/04 09:23:36;;;;;;;20.80;16.33;;;21.90;99.90;;;;;;4877717;29;20120;-77
2022/09/04 09:26:28;;;;;;;22.77;15.88;;;22.20;99.90;;;;;;4877557;29;20056;-77
2022/09/04 09:28:56;;;;;;;19.57;14.53;;;22.00;99.90;;;;;;4915998;29;20083;-77
2022/09/04 09:31:37;;;;;;;19.38;15.00;;;22.30;99.90;;;;;;4934432;29;20032;-77
2022/09/04 09:34:24;;;;;;;20.73;14.85;;;22.30;99.90;;;;;;4934190;29;20043;-75
2022/09/04 09:36:58;;;;;;;20.30;15.00;;;22.60;99.90;;;;;;4934267;29;20063;-77
2022/09/04 09:39:27;;;;;;;20.02;15.15;;;22.50;99.90;;;;;;4934542;29;20146;-77
2022/09/04 09:42:23;;;;;;;25.45;19.00;;;22.70;99.90;;;;;;4934094;29;20071;-75
2022/09/04 09:45:10;;;;;;;20.90;13.93;;;23.00;99.90;;;;;;4933520;29;20028;-77
2022/09/04 09:48:12;;;;;;;19.83;16.23;;;23.00;99.90;;;;;;4933932;29;20047;-71
2022/09/04 09:51:13;;;;;;;20.40;16.42;;;23.20;99.90;;;;;;4933863;29;20039;-78
2022/09/04 09:53:50;;;;;;;19.48;14.70;;;23.50;99.90;;;;;;4933874;29;20035;-77
2022/09/04 09:56:54;;;;;;;25.98;16.42;;;23.40;99.90;;;;;;4934006;29;20051;-76
2022/09/04 09:59:38;;;;;;;19.65;15.13;;;23.60;99.90;;;;;;4995046;28;20096;-76
2022/09/04 10:02:56;;;;;;;20.70;14.32;;;23.80;99.90;;;;;;5024956;28;20026;-73
2022/09/04 10:06:09;;;;;;;27.80;21.80;;;24.00;99.90;;;;;;5012373;28;20119;-76
2022/09/04 10:08:41;;;;;;;19.13;13.73;;;24.20;99.90;;;;;;5012799;28;20480;-77
2022/09/04 10:11:45;;;;;;;18.90;12.95;;;23.90;99.90;;;;;;5013629;28;20029;-75
2022/09/04 10:14:41;;;;;;;17.58;12.93;;;24.00;99.90;;;;;;4952475;29;20031;-74
2022/09/04 10:17:31;;;;;;;16.40;11.38;;;24.20;99.90;;;;;;4952409;29;20109;-73
2022/09/04 10:20:15;;;;;;;18.33;12.80;;;24.00;99.90;;;;;;4952369;29;20051;-75
2022/09/04 10:22:59;;;;;;;19.75;13.68;;;24.20;99.90;;;;;;4952072;28;20481;-74
2022/09/04 10:25:46;;;;;;;18.73;13.77;;;24.40;99.90;;;;;;4952592;29;20460;-75
2022/09/04 10:28:24;;;;;;;18.85;15.43;;;24.40;99.90;;;;;;4952693;28;20035;-74
2022/09/04 10:31:14;;;;;;;18.92;13.57;;;24.30;99.90;;;;;;4952063;29;20482;-75
2022/09/04 10:34:00;;;;;;;20.50;14.27;;;24.10;99.90;;;;;;4952004;29;20039;-77
2022/09/04 10:36:35;;;;;;;17.50;13.82;;;24.20;99.90;;;;;;4952322;29;20032;-77
2022/09/04 10:42:39;;;;;;;19.63;12.15;;;24.10;99.90;;;;;;4951492;29;20071;-78
2022/09/04 10:45:23;;;;;;;19.15;13.75;;;23.90;99.90;;;;;;4948972;29;20031;-75
2022/09/04 10:48:21;;;;;;;21.60;13.82;;;24.00;99.90;;;;;;4971791;28;20048;-78
2022/09/04 10:50:56;;;;;;;20.63;15.90;;;23.90;99.90;;;;;;5012321;28;20376;-77
2022/09/04 10:53:42;;;;;;;17.70;12.65;;;24.20;99.90;;;;;;5012102;28;20037;-76
2022/09/04 10:56:33;;;;;;;18.42;13.18;;;24.20;99.90;;;;;;4951272;29;20050;-77
2022/09/04 10:59:30;;;;;;;22.55;13.88;;;24.10;99.90;;;;;;4951238;29;20047;-78
2022/09/04 11:01:58;;;;;;;18.58;13.55;;;24.30;99.90;;;;;;4951695;29;20481;-78
2022/09/04 11:04:45;;;;;;;25.25;14.65;;;24.00;99.90;;;;;;4951651;29;20398;-77
2022/09/04 11:07:25;;;;;;;17.67;12.45;;;24.20;99.90;;;;;;4951575;29;20234;-78
2022/09/04 11:10:11;;;;;;;16.90;11.52;;;24.10;99.90;;;;;;4951114;29;20119;-74
2022/09/04 11:12:57;;;;;;;17.02;12.57;;;24.30;99.90;;;;;;4951810;29;20035;-77
2022/09/04 11:15:46;;;;;;;15.90;12.45;;;24.20;99.90;;;;;;4951697;29;20326;-76
2022/09/04 11:18:21;;;;;;;19.25;12.48;;;24.50;99.90;;;;;;4951277;29;20035;-76
2022/09/04 11:21:20;;;;;;;17.00;10.80;;;24.60;99.90;;;;;;4951454;29;20054;-75
2022/09/04 11:24:13;;;;;;;16.52;11.57;;;24.60;99.90;;;;;;4951442;29;20517;-75
2022/09/04 11:27:02;;;;;;;19.27;11.93;;;25.10;99.90;;;;;;4951094;29;20074;-76
2022/09/04 11:29:42;;;;;;;135.20;26.83;;;25.30;99.90;;;;;;4951065;29;20038;-77
2022/09/04 11:32:23;;;;;;;17.08;11.80;;;25.60;99.90;;;;;;4953245;28;20045;-77
2022/09/04 11:35:22;;;;;;;23.92;14.32;;;25.60;99.90;;;;;;5011693;28;20030;-77
2022/09/04 11:38:09;;;;;;;14.70;10.38;;;25.70;99.90;;;;;;5012056;28;20105;-77
2022/09/04 11:40:37;;;;;;;21.85;11.07;;;25.80;99.90;;;;;;5012177;28;20427;-78
2022/09/04 11:43:22;;;;;;;23.27;10.50;;;25.80;99.90;;;;;;5011420;28;20046;-78
2022/09/04 11:46:12;;;;;;;15.88;10.68;;;25.00;99.90;;;;;;5015514;28;20056;-78
2022/09/04 11:49:06;;;;;;;28.85;14.00;;;25.20;99.90;;;;;;5015320;28;20050;-77
2022/09/04 11:51:59;;;;;;;53.78;17.85;;;25.20;99.90;;;;;;5015922;28;20034;-78
2022/09/04 11:54:43;;;;;;;17.85;11.30;;;25.40;99.90;;;;;;5015516;28;20044;-78
2022/09/04 11:57:15;;;;;;;13.88;10.48;;;25.50;99.90;;;;;;5015686;28;20030;-77
2022/09/04 11:59:50;;;;;;;14.68;10.38;;;25.10;99.90;;;;;;5015420;28;20088;-76
2022/09/04 12:02:49;;;;;;;18.67;11.93;;;25.10;99.90;;;;;;5015390;28;20538;-77
2022/09/04 12:05:40;;;;;;;15.65;11.27;;;25.30;99.90;;;;;;5015577;28;20026;-77
2022/09/04 12:08:34;;;;;;;16.30;12.30;;;25.40;99.90;;;;;;5015091;28;20025;-77
2022/09/04 12:11:34;;;;;;;16.92;11.55;;;25.40;99.90;;;;;;5015603;28;20403;-76
2022/09/04 12:14:07;;;;;;;15.13;10.98;;;25.60;99.90;;;;;;5009036;28;20018;-77
2022/09/04 12:16:42;;;;;;;17.55;11.75;;;25.10;99.90;;;;;;5015096;28;20431;-73
2022/09/04 12:19:27;;;;;;;19.52;11.60;;;25.10;99.90;;;;;;5015157;28;20050;-76
2022/09/04 12:22:19;;;;;;;16.45;11.35;;;25.40;99.90;;;;;;5015222;28;20022;-75
2022/09/04 12:25:15;;;;;;;16.92;11.98;;;25.40;99.90;;;;;;5015404;28;20049;-77
2022/09/04 12:27:41;;;;;;;16.20;11.38;;;25.60;99.90;;;;;;5015148;28;20329;-75
2022/09/04 12:30:24;;;;;;;24.30;13.88;;;25.60;99.90;;;;;;5014707;28;20025;-77
2022/09/04 12:33:38;;;;;;;23.35;13.82;;;25.80;99.90;;;;;;5014962;28;20022;-76
2022/09/04 12:36:27;;;;;;;146.23;65.47;;;25.80;99.90;;;;;;5015184;28;20538;-74
2022/09/04 12:39:18;;;;;;;21.60;14.10;;;25.80;99.90;;;;;;5014600;28;20431;-77
2022/09/04 12:42:10;;;;;;;29.40;16.67;;;25.80;99.90;;;;;;5015223;28;20464;-76
2022/09/04 12:44:48;;;;;;;15.25;10.85;;;25.10;99.90;;;;;;5014481;28;20116;-77
2022/09/04 12:47:21;;;;;;;43.70;19.83;;;25.00;99.90;;;;;;5014602;28;20042;-77
2022/09/04 12:50:28;;;;;;;32.47;16.17;;;25.20;99.90;;;;;;5014850;28;20042;-77
2022/09/04 12:52:57;;;;;;;26.25;15.48;;;25.30;99.90;;;;;;5014521;28;20022;-76
2022/09/04 12:56:04;;;;;;;20.40;15.52;;;25.30;99.90;;;;;;5014558;28;20022;-76
2022/09/04 12:59:06;;;;;;;18.20;13.20;;;25.40;99.90;;;;;;5014103;28;20037;-78
2022/09/04 13:01:45;;;;;;;21.88;14.43;;;25.20;99.90;;;;;;5014290;28;20033;-74
2022/09/04 13:04:22;;;;;;;36.63;19.27;;;25.10;99.90;;;;;;5014293;28;20034;-78
2022/09/04 13:07:13;;;;;;;38.15;17.92;;;25.20;99.90;;;;;;5013768;28;20048;-73
2022/09/04 13:10:00;;;;;;;17.45;13.13;;;25.30;99.90;;;;;;5014104;28;20065;-77
2022/09/04 13:12:57;;;;;;;16.65;11.32;;;25.30;99.90;;;;;;5013610;28;20064;-77
2022/09/04 13:15:32;;;;;;;18.17;11.90;;;25.30;99.90;;;;;;5013698;28;20030;-77
2022/09/04 13:18:16;;;;;;;19.45;12.15;;;25.10;99.90;;;;;;5012489;28;20380;-75
2022/09/04 13:21:21;;;;;;;16.45;11.63;;;25.10;99.90;;;;;;5007361;28;20048;-75
2022/09/04 13:24:08;;;;;;;16.70;12.07;;;25.20;99.90;;;;;;4983451;28;20033;-74
2022/09/04 13:26:42;;;;;;;19.65;14.07;;;25.20;99.90;;;;;;5010299;28;20026;-75
2022/09/04 13:29:53;;;;;;;16.90;12.63;;;25.20;99.90;;;;;;5011862;28;20143;-75
2022/09/04 13:32:31;;;;;;;16.42;12.60;;;25.20;99.90;;;;;;4952872;28;20509;-76
2022/09/04 13:35:28;;;;;;;17.73;13.63;;;25.00;99.90;;;;;;4953222;29;20505;-72
2022/09/04 13:38:03;;;;;;;27.45;22.17;;;25.10;99.90;;;;;;4953517;29;20027;-73
2022/09/04 13:40:29;;;;;;;20.33;15.15;;;25.00;99.90;;;;;;4953637;29;20043;-74
2022/09/04 13:43:16;;;;;;;22.58;19.25;;;25.00;99.90;;;;;;4952961;28;20027;-74
2022/09/04 13:45:43;;;;;;;18.00;13.82;;;25.20;99.90;;;;;;4953247;28;20133;-74
2022/09/04 13:48:39;;;;;;;17.90;13.18;;;25.40;99.90;;;;;;4950295;29;20054;-72
2022/09/04 13:51:11;;;;;;;20.65;11.85;;;25.40;99.90;;;;;;4952242;28;20124;-71
2022/09/04 13:53:46;;;;;;;18.88;14.48;;;25.10;99.90;;;;;;4954161;28;20174;-75
2022/09/04 13:56:18;;;;;;;17.45;13.68;;;25.20;99.90;;;;;;4954722;28;20031;-74
2022/09/04 13:58:50;;;;;;;18.38;12.82;;;25.30;99.90;;;;;;4953225;29;20137;-75
2022/09/04 14:01:20;;;;;;;;;;;25.40;99.90;;;;;;4959348;28;20038;-75
2022/09/04 14:03:59;;;;;;;18.30;12.90;;;25.30;99.90;;;;;;4952942;29;19917;-73
2022/09/04 14:06:29;;;;;;;18.58;12.98;;;25.20;99.90;;;;;;4978091;28;20065;-76
2022/09/04 14:08:56;;;;;;;17.88;14.25;;;25.10;99.90;;;;;;4996618;28;20124;-76